createdAt,value
2018-06-02T00:00:28.750Z,10.13
2018-06-02T00:04:32.268Z,11.53
2018-06-02T00:08:35.063Z,9.40
2018-06-02T00:12:37.839Z,8.93
2018-06-02T00:16:40.666Z,10.97
2018-06-02T00:20:44.155Z,11.17
2018-06-02T00:24:46.978Z,12.17
2018-06-02T00:28:50.740Z,11.57
2018-06-02T00:32:53.464Z,9.90
2018-06-02T00:36:56.181Z,10.27
2018-06-02T00:40:58.956Z,11.90
2018-06-02T00:45:01.655Z,12.43
2018-06-02T00:49:04.381Z,13.47
2018-06-02T00:53:07.907Z,11.40
2018-06-02T00:57:11.417Z,9.50
2018-06-02T01:01:14.910Z,8.83
2018-06-02T01:05:17.743Z,13.47
2018-06-02T01:09:20.478Z,8.63
2018-06-02T01:13:23.232Z,8.93
2018-06-02T01:17:25.966Z,9.50
2018-06-02T01:21:28.710Z,11.43
2018-06-02T01:25:32.322Z,11.20
2018-06-02T01:29:35.789Z,10.07
2018-06-02T01:33:38.513Z,15.83
2018-06-02T01:37:41.241Z,11.33
2018-06-02T01:41:44.724Z,11.83
2018-06-02T01:45:47.469Z,11.03
2018-06-02T01:49:50.259Z,9.50
2018-06-02T01:53:52.961Z,8.97
2018-06-02T01:57:55.948Z,11.33
2018-06-02T02:01:59.445Z,9.57
2018-06-02T02:06:02.998Z,10.43
2018-06-02T02:10:05.838Z,10.90
2018-06-02T02:14:08.579Z,11.23
2018-06-02T02:18:12.181Z,9.53
2018-06-02T02:22:14.935Z,9.60
2018-06-02T02:26:18.470Z,8.53
2018-06-02T02:30:21.295Z,10.17
2018-06-02T02:34:24.777Z,11.13
2018-06-02T02:38:27.702Z,11.10
2018-06-02T02:42:31.197Z,13.83
2018-06-02T02:46:33.953Z,9.30
2018-06-02T02:50:36.694Z,13.87
2018-06-02T02:54:39.840Z,10.50
2018-06-02T02:58:42.580Z,11.33
2018-06-02T03:02:45.328Z,9.70
2018-06-02T03:06:48.165Z,9.23
2018-06-02T03:10:50.863Z,12.70
2018-06-02T03:14:53.830Z,10.27
2018-06-02T03:18:56.679Z,11.60
2018-06-02T03:22:59.405Z,10.30
2018-06-02T03:27:02.918Z,11.53
2018-06-02T03:31:06.409Z,11.27
2018-06-02T03:35:09.934Z,10.30
2018-06-02T03:39:12.681Z,10.77
2018-06-02T03:43:15.418Z,10.87
2018-06-02T03:47:18.145Z,9.47
2018-06-02T03:51:21.702Z,10.23
2018-06-02T03:55:24.411Z,8.50
2018-06-02T03:59:28.000Z,10.80
2018-06-02T04:03:30.789Z,8.13
2018-06-02T04:07:33.520Z,9.10
2018-06-02T04:11:36.317Z,9.37
2018-06-02T04:15:39.015Z,10.20
2018-06-02T04:19:42.615Z,9.10
2018-06-02T04:23:45.357Z,8.77
2018-06-02T04:27:48.173Z,14.40
2018-06-02T04:31:51.670Z,9.93
2018-06-02T04:35:55.545Z,10.30
2018-06-02T04:39:58.337Z,12.47
2018-06-02T04:44:01.131Z,9.90
2018-06-02T04:48:03.915Z,12.17
2018-06-02T04:52:06.856Z,13.70
2018-06-02T04:56:09.629Z,13.60
2018-06-02T05:00:12.423Z,11.20
2018-06-02T05:04:15.191Z,14.70
2018-06-02T05:08:17.994Z,12.70
2018-06-02T05:12:20.805Z,11.03
2018-06-02T05:16:24.277Z,13.87
2018-06-02T05:20:27.228Z,13.43
2018-06-02T05:24:29.973Z,11.43
2018-06-02T05:28:33.033Z,12.07
2018-06-02T05:32:35.765Z,14.37
2018-06-02T05:36:38.505Z,9.73
2018-06-02T05:40:42.063Z,8.17
2018-06-02T05:44:45.590Z,7.93
2018-06-02T05:48:48.325Z,8.40
2018-06-02T05:52:51.820Z,10.60
2018-06-02T05:56:54.634Z,8.50
2018-06-02T06:00:58.139Z,8.80
2018-06-02T06:05:00.873Z,8.57
2018-06-02T06:09:04.450Z,9.00
2018-06-02T06:13:10.276Z,8.03
2018-06-02T06:17:13.241Z,7.47
2018-06-02T06:21:16.875Z,8.70
2018-06-02T06:25:33.343Z,7.60
2018-06-02T06:29:36.211Z,8.53
2018-06-02T06:33:39.010Z,8.80
2018-06-02T06:37:41.763Z,7.67
2018-06-02T06:41:46.439Z,6.67
2018-06-02T06:45:49.151Z,4.27
2018-06-02T06:49:52.008Z,3.87
2018-06-02T06:53:54.799Z,4.00
2018-06-02T06:57:57.565Z,4.03
2018-06-02T07:02:00.452Z,4.00
2018-06-02T07:06:03.187Z,4.20
2018-06-02T07:10:06.051Z,4.47
2018-06-02T07:14:08.803Z,3.10
2018-06-02T07:18:15.532Z,3.13
2018-06-02T07:22:18.292Z,2.73
2018-06-02T07:26:22.205Z,3.40
2018-06-02T07:30:25.140Z,3.27
2018-06-02T07:34:27.867Z,3.70
2018-06-02T07:38:30.614Z,5.63
2018-06-02T07:42:33.358Z,8.23
2018-06-02T07:46:36.176Z,3.40
2018-06-02T07:50:39.749Z,4.80
2018-06-02T07:54:42.608Z,3.20
2018-06-02T07:58:45.535Z,3.30
2018-06-02T08:02:48.357Z,2.43
2018-06-02T08:06:51.680Z,3.27
2018-06-02T08:10:54.428Z,3.23
2018-06-02T08:14:57.321Z,3.30
2018-06-02T08:19:01.111Z,3.70
2018-06-02T08:23:04.764Z,3.63
2018-06-02T08:27:07.543Z,2.60
2018-06-02T08:31:11.534Z,8.20
2018-06-02T08:35:14.276Z,4.33
2018-06-02T08:39:17.813Z,5.57
2018-06-02T08:43:21.521Z,5.73
2018-06-02T08:47:24.529Z,4.63
2018-06-02T08:51:27.293Z,4.13
2018-06-02T08:55:31.160Z,4.47
2018-06-02T08:59:33.876Z,4.60
2018-06-02T09:03:36.734Z,5.07
2018-06-02T09:07:39.638Z,6.60
2018-06-02T09:11:42.946Z,5.57
2018-06-02T09:15:45.785Z,3.87
2018-06-02T09:19:49.290Z,4.80
2018-06-02T09:23:52.009Z,6.60
2018-06-02T09:27:55.625Z,5.33
2018-06-02T09:31:58.461Z,4.57
2018-06-02T09:36:01.288Z,5.13
2018-06-02T09:40:04.134Z,4.10
2018-06-02T09:44:06.943Z,5.20
2018-06-02T09:48:09.643Z,5.27
2018-06-02T09:52:13.573Z,4.50
2018-06-02T09:56:16.322Z,4.47
2018-06-02T10:00:25.741Z,4.07
2018-06-02T10:04:28.478Z,3.97
2018-06-02T10:08:32.055Z,3.97
2018-06-02T10:12:34.761Z,4.33
2018-06-02T10:16:37.508Z,5.37
2018-06-02T10:20:40.257Z,4.20
2018-06-02T10:24:43.075Z,5.10
2018-06-02T10:28:45.810Z,5.17
2018-06-02T10:32:48.540Z,4.83
2018-06-02T10:36:51.299Z,5.00
2018-06-02T10:40:54.049Z,5.83
2018-06-02T10:44:56.892Z,4.70
2018-06-02T10:48:59.700Z,8.53
2018-06-02T10:53:02.533Z,5.00
2018-06-02T10:57:05.354Z,6.40
2018-06-02T11:01:08.148Z,4.17
2018-06-02T11:05:10.948Z,4.00
2018-06-02T11:09:13.795Z,4.03
2018-06-02T11:13:16.734Z,7.37
2018-06-02T11:17:19.653Z,4.63
2018-06-02T11:21:22.405Z,4.43
2018-06-02T11:25:25.145Z,4.83
2018-06-02T11:29:28.621Z,5.00
2018-06-02T11:33:31.610Z,5.03
2018-06-02T11:37:34.380Z,6.20
2018-06-02T11:41:37.997Z,4.73
2018-06-02T11:45:41.601Z,6.70
2018-06-02T11:49:44.401Z,4.47
2018-06-02T11:53:47.885Z,5.20
2018-06-02T11:57:50.682Z,5.70
2018-06-02T12:01:53.413Z,5.30
2018-06-02T12:05:56.120Z,5.23
2018-06-02T12:09:59.672Z,4.30
2018-06-02T12:14:02.406Z,4.30
2018-06-02T12:18:05.227Z,5.23
2018-06-02T12:22:08.732Z,8.87
2018-06-02T12:26:12.244Z,5.00
2018-06-02T12:30:15.030Z,4.33
2018-06-02T12:34:17.961Z,3.07
2018-06-02T12:38:21.549Z,2.50
2018-06-02T12:42:24.338Z,2.60
2018-06-02T12:46:27.069Z,2.83
2018-06-02T12:50:30.652Z,2.87
2018-06-02T12:54:34.230Z,2.50
2018-06-02T12:58:36.993Z,2.60
2018-06-02T13:02:40.553Z,3.77
2018-06-02T13:06:43.378Z,4.10
2018-06-02T13:10:46.177Z,4.27
2018-06-02T13:14:48.932Z,4.93
2018-06-02T13:18:51.659Z,8.20
2018-06-02T13:22:54.398Z,4.50
2018-06-02T13:26:57.915Z,4.60
2018-06-02T13:31:01.704Z,3.60
2018-06-02T13:35:04.634Z,3.07
2018-06-02T13:39:08.261Z,3.07
2018-06-02T13:43:11.881Z,3.13
2018-06-02T13:47:15.446Z,3.20
2018-06-02T13:51:18.215Z,3.00
2018-06-02T13:55:20.990Z,3.03
2018-06-02T13:59:23.809Z,3.17
2018-06-02T14:03:26.538Z,3.10
2018-06-02T14:07:29.412Z,2.40
2018-06-02T14:11:32.463Z,2.50
2018-06-02T14:15:36.223Z,3.23
2018-06-02T14:19:38.965Z,4.97
2018-06-02T14:23:41.673Z,3.10
2018-06-02T14:27:44.416Z,3.60
2018-06-02T14:31:47.145Z,3.57
2018-06-02T14:35:49.903Z,4.53
2018-06-02T14:39:52.695Z,3.27
2018-06-02T14:43:56.194Z,3.50
2018-06-02T14:47:58.931Z,3.57
2018-06-02T14:52:01.726Z,3.67
2018-06-02T14:56:04.475Z,3.80
2018-06-02T15:00:07.248Z,3.90
2018-06-02T15:04:11.001Z,2.80
2018-06-02T15:08:13.774Z,3.20
2018-06-02T15:12:16.636Z,4.50
2018-06-02T15:16:20.891Z,3.43
2018-06-02T15:20:26.246Z,3.60
2018-06-02T15:24:29.678Z,4.10
2018-06-02T15:28:32.610Z,2.97
2018-06-02T15:32:35.469Z,3.53
2018-06-02T15:36:38.654Z,3.27
2018-06-02T15:40:41.595Z,10.00
2018-06-02T15:44:44.379Z,2.77
2018-06-02T15:48:48.102Z,3.77
2018-06-02T15:52:51.038Z,4.43
2018-06-02T15:56:54.540Z,3.87
2018-06-02T16:00:57.553Z,4.70
2018-06-02T16:05:01.316Z,3.83
2018-06-02T16:09:04.473Z,3.73
2018-06-02T16:13:07.524Z,3.20
2018-06-02T16:17:10.847Z,3.63
2018-06-02T16:21:14.832Z,3.53
2018-06-02T16:25:17.877Z,3.50
2018-06-02T16:29:21.531Z,3.80
2018-06-02T16:33:24.938Z,3.33
2018-06-02T16:37:28.592Z,3.37
2018-06-02T16:41:31.838Z,3.50
2018-06-02T16:45:34.675Z,3.87
2018-06-02T16:49:38.240Z,6.30
2018-06-02T16:53:41.131Z,3.67
2018-06-02T16:57:44.749Z,4.20
2018-06-02T17:01:47.886Z,3.70
2018-06-02T17:05:50.616Z,5.20
2018-06-02T17:09:54.115Z,4.83
2018-06-02T17:13:56.992Z,2.93
2018-06-02T17:17:59.784Z,3.40
2018-06-02T17:22:02.602Z,4.03
2018-06-02T17:26:05.327Z,5.77
2018-06-02T17:30:08.806Z,3.47
2018-06-02T17:34:11.757Z,3.67
2018-06-02T17:38:14.465Z,3.80
2018-06-02T17:42:17.283Z,4.07
2018-06-02T17:46:20.837Z,4.10
2018-06-02T17:50:23.669Z,4.47
2018-06-02T17:54:26.421Z,4.03
2018-06-02T17:58:29.160Z,4.20
2018-06-02T18:02:32.205Z,3.90
2018-06-02T18:06:34.962Z,5.67
2018-06-02T18:10:37.850Z,4.83
2018-06-02T18:14:41.321Z,5.97
2018-06-02T18:18:44.051Z,4.40
2018-06-02T18:22:47.589Z,7.23
2018-06-02T18:26:50.435Z,4.77
2018-06-02T18:30:54.800Z,5.37
2018-06-02T18:34:58.386Z,8.53
2018-06-02T18:39:01.212Z,5.93
2018-06-02T18:43:04.756Z,5.43
2018-06-02T18:47:07.504Z,8.70
2018-06-02T18:51:11.474Z,5.87
2018-06-02T18:55:14.208Z,14.10
2018-06-02T18:59:16.961Z,9.53
2018-06-02T19:03:19.675Z,6.83
2018-06-02T19:07:22.654Z,4.80
2018-06-02T19:11:25.505Z,5.33
2018-06-02T19:15:29.502Z,4.67
2018-06-02T19:19:32.343Z,14.57
2018-06-02T19:23:36.348Z,4.00
2018-06-02T19:32:30.126Z,5.60
2018-06-02T19:36:34.514Z,4.70
2018-06-02T19:40:39.275Z,7.60
2018-06-02T19:44:43.743Z,4.40
2018-06-02T19:48:48.557Z,4.00
2018-06-02T19:52:52.956Z,6.00
2018-06-02T19:56:57.226Z,3.63
2018-06-02T20:01:01.675Z,4.57
2018-06-02T20:05:05.998Z,4.67
2018-06-02T20:09:11.346Z,3.90
2018-06-02T20:13:15.717Z,5.40
2018-06-02T20:17:19.968Z,2.27
2018-06-02T20:21:23.688Z,2.50
2018-06-02T20:25:27.443Z,3.97
2018-06-02T20:29:31.705Z,3.20
2018-06-02T20:33:36.092Z,1.70
2018-06-02T20:37:40.528Z,4.80
2018-06-02T20:41:44.794Z,2.00
2018-06-02T20:45:49.240Z,2.27
2018-06-02T20:49:53.521Z,2.40
2018-06-02T20:53:57.842Z,1.80
2018-06-02T20:58:02.147Z,3.20
2018-06-02T21:02:06.458Z,3.07
2018-06-02T21:06:10.921Z,2.40
2018-06-02T21:10:15.225Z,2.50
2018-06-02T21:14:19.566Z,1.57
2018-06-02T21:18:23.819Z,1.90
2018-06-02T21:22:28.199Z,1.80
2018-06-02T21:26:32.453Z,2.60
2018-06-02T21:30:36.773Z,1.40
2018-06-02T21:34:41.024Z,2.20
2018-06-02T21:38:45.296Z,3.73
2018-06-02T21:42:49.008Z,2.20
2018-06-02T21:46:52.870Z,1.83
2018-06-02T21:50:57.102Z,2.40
2018-06-02T21:55:01.379Z,3.10
2018-06-02T21:59:05.833Z,5.43
2018-06-02T22:03:10.255Z,2.97
2018-06-02T22:07:14.049Z,3.20
2018-06-02T22:11:18.644Z,2.83
2018-06-02T22:15:23.117Z,2.37
2018-06-02T22:19:27.655Z,2.40
2018-06-02T22:23:32.190Z,2.87
2018-06-02T22:27:36.425Z,1.93
2018-06-02T22:31:40.890Z,2.60
2018-06-02T22:35:45.236Z,7.50
2018-06-02T22:39:49.096Z,3.17
2018-06-02T22:43:53.338Z,2.87
2018-06-02T22:47:58.779Z,2.77
2018-06-02T22:52:02.993Z,2.17
2018-06-02T22:56:07.629Z,2.00
2018-06-02T23:00:14.210Z,2.70
2018-06-02T23:04:18.871Z,3.77
2018-06-02T23:08:23.289Z,5.63
2018-06-02T23:12:27.710Z,2.43
2018-06-02T23:16:31.988Z,2.57
2018-06-02T23:20:36.334Z,3.50
2018-06-02T23:24:40.576Z,4.93
2018-06-02T23:28:44.847Z,4.50
2018-06-02T23:32:49.197Z,2.93
2018-06-02T23:36:53.454Z,4.07
2018-06-02T23:40:57.789Z,4.07
2018-06-02T23:45:02.343Z,3.53
2018-06-02T23:49:08.069Z,3.67
2018-06-02T23:53:13.950Z,3.97
2018-06-02T23:57:19.019Z,6.03
